sensor_id;sensor_type;location;lat;lon;timestamp;temperature;humidity
22950;DHT22;11641;51.018;4.474;2022-08-01T00:02:28;21.40;99.90
22950;DHT22;11641;51.018;4.474;2022-08-01T00:04:57;21.40;99.90
22950;DHT22;11641;51.018;4.474;2022-08-01T00:07:23;21.40;99.90
22950;DHT22;11641;51.018;4.474;2022-08-01T00:09:51;21.40;99.90
22950;DHT22;11641;51.018;4.474;2022-08-01T00:12:18;21.50;99.90
22950;DHT22;11641;51.018;4.474;2022-08-01T00:14:48;21.60;99.90
22950;DHT22;11641;51.018;4.474;2022-08-01T00:17:14;21.60;99.90
22950;DHT22;11641;51.018;4.474;2022-08-01T00:19:41;21.60;99.90
22950;DHT22;11641;51.018;4.474;2022-08-01T00:22:07;21.50;99.90
22950;DHT22;11641;51.018;4.474;2022-08-01T00:24:32;21.40;99.90
22950;DHT22;11641;51.018;4.474;2022-08-01T00:26:58;21.30;99.90
22950;DHT22;11641;51.018;4.474;2022-08-01T00:29:26;21.20;99.90
22950;DHT22;11641;51.018;4.474;2022-08-01T00:31:54;21.10;99.90
22950;DHT22;11641;51.018;4.474;2022-08-01T00:34:23;21.10;99.90
22950;DHT22;11641;51.018;4.474;2022-08-01T00:36:49;21.20;99.90
22950;DHT22;11641;51.018;4.474;2022-08-01T00:39:17;21.20;99.90
22950;DHT22;11641;51.018;4.474;2022-08-01T00:41:43;21.20;99.90
22950;DHT22;11641;51.018;4.474;2022-08-01T00:44:09;21.20;99.90
22950;DHT22;11641;51.018;4.474;2022-08-01T00:46:34;21.10;99.90
22950;DHT22;11641;51.018;4.474;2022-08-01T00:49:03;21.30;99.90
22950;DHT22;11641;51.018;4.474;2022-08-01T00:51:29;21.00;99.90
22950;DHT22;11641;51.018;4.474;2022-08-01T00:53:54;21.00;99.90
22950;DHT22;11641;51.018;4.474;2022-08-01T00:56:21;21.10;99.90
22950;DHT22;11641;51.018;4.474;2022-08-01T00:58:49;21.20;99.90
22950;DHT22;11641;51.018;4.474;2022-08-01T01:01:16;21.30;99.90
22950;DHT22;11641;51.018;4.474;2022-08-01T01:03:42;21.20;99.90
22950;DHT22;11641;51.018;4.474;2022-08-01T01:06:25;21.30;99.90
22950;DHT22;11641;51.018;4.474;2022-08-01T01:11:31;21.30;99.90
22950;DHT22;11641;51.018;4.474;2022-08-01T01:14:04;21.30;99.90
22950;DHT22;11641;51.018;4.474;2022-08-01T01:16:31;21.20;99.90
22950;DHT22;11641;51.018;4.474;2022-08-01T01:19:01;21.00;99.90
22950;DHT22;11641;51.018;4.474;2022-08-01T01:24:39;20.90;99.90
22950;DHT22;11641;51.018;4.474;2022-08-01T01:29:51;21.00;99.90
22950;DHT22;11641;51.018;4.474;2022-08-01T01:32:35;21.00;99.90
22950;DHT22;11641;51.018;4.474;2022-08-01T01:35:10;21.10;99.90
22950;DHT22;11641;51.018;4.474;2022-08-01T01:37:39;21.20;99.90
22950;DHT22;11641;51.018;4.474;2022-08-01T01:40:07;21.20;99.90
22950;DHT22;11641;51.018;4.474;2022-08-01T01:42:36;21.20;99.90
22950;DHT22;11641;51.018;4.474;2022-08-01T01:45:05;21.20;99.90
22950;DHT22;11641;51.018;4.474;2022-08-01T01:47:33;21.20;99.90
22950;DHT22;11641;51.018;4.474;2022-08-01T01:50:00;21.20;99.90
22950;DHT22;11641;51.018;4.474;2022-08-01T01:52:27;21.30;99.90
22950;DHT22;11641;51.018;4.474;2022-08-01T01:54:54;21.20;99.90
22950;DHT22;11641;51.018;4.474;2022-08-01T01:57:22;21.30;99.90
22950;DHT22;11641;51.018;4.474;2022-08-01T01:59:51;21.30;99.90
22950;DHT22;11641;51.018;4.474;2022-08-01T02:02:19;21.20;99.90
22950;DHT22;11641;51.018;4.474;2022-08-01T02:04:48;21.30;99.90
22950;DHT22;11641;51.018;4.474;2022-08-01T02:07:19;21.10;99.90
22950;DHT22;11641;51.018;4.474;2022-08-01T02:09:46;21.00;99.90
22950;DHT22;11641;51.018;4.474;2022-08-01T02:12:13;21.00;99.90
22950;DHT22;11641;51.018;4.474;2022-08-01T02:14:43;21.00;99.90
22950;DHT22;11641;51.018;4.474;2022-08-01T02:17:12;20.90;99.90
22950;DHT22;11641;51.018;4.474;2022-08-01T02:19:41;20.90;99.90
22950;DHT22;11641;51.018;4.474;2022-08-01T02:22:11;20.80;99.90
22950;DHT22;11641;51.018;4.474;2022-08-01T02:27:59;21.00;99.90
22950;DHT22;11641;51.018;4.474;2022-08-01T02:30:33;21.00;99.90
22950;DHT22;11641;51.018;4.474;2022-08-01T02:33:15;21.00;99.90
22950;DHT22;11641;51.018;4.474;2022-08-01T02:35:44;20.90;99.90
22950;DHT22;11641;51.018;4.474;2022-08-01T02:38:14;20.90;99.90
22950;DHT22;11641;51.018;4.474;2022-08-01T02:40:45;21.00;99.90
22950;DHT22;11641;51.018;4.474;2022-08-01T02:43:12;21.00;99.90
22950;DHT22;11641;51.018;4.474;2022-08-01T02:45:45;20.90;99.90
22950;DHT22;11641;51.018;4.474;2022-08-01T02:48:14;20.90;99.90
22950;DHT22;11641;51.018;4.474;2022-08-01T02:50:43;20.80;99.90
22950;DHT22;11641;51.018;4.474;2022-08-01T02:53:11;20.70;99.90
22950;DHT22;11641;51.018;4.474;2022-08-01T02:55:39;20.70;99.90
22950;DHT22;11641;51.018;4.474;2022-08-01T02:58:07;20.80;99.90
22950;DHT22;11641;51.018;4.474;2022-08-01T03:00:34;20.70;99.90
22950;DHT22;11641;51.018;4.474;2022-08-01T03:03:01;20.60;99.90
22950;DHT22;11641;51.018;4.474;2022-08-01T03:05:29;20.50;99.90
22950;DHT22;11641;51.018;4.474;2022-08-01T03:07:57;20.60;99.90
22950;DHT22;11641;51.018;4.474;2022-08-01T03:10:30;20.60;99.90
22950;DHT22;11641;51.018;4.474;2022-08-01T03:12:58;20.50;99.90
22950;DHT22;11641;51.018;4.474;2022-08-01T03:15:26;20.40;99.90
22950;DHT22;11641;51.018;4.474;2022-08-01T03:17:55;20.50;99.90
22950;DHT22;11641;51.018;4.474;2022-08-01T03:20:23;20.30;99.90
22950;DHT22;11641;51.018;4.474;2022-08-01T03:22:53;20.30;99.90
22950;DHT22;11641;51.018;4.474;2022-08-01T03:25:20;20.10;99.90
22950;DHT22;11641;51.018;4.474;2022-08-01T03:27:54;20.00;99.90
22950;DHT22;11641;51.018;4.474;2022-08-01T03:30:23;19.90;99.90
22950;DHT22;11641;51.018;4.474;2022-08-01T03:32:49;19.90;99.90
22950;DHT22;11641;51.018;4.474;2022-08-01T03:35:17;20.00;99.90
22950;DHT22;11641;51.018;4.474;2022-08-01T03:37:46;19.80;99.90
22950;DHT22;11641;51.018;4.474;2022-08-01T03:40:30;19.90;99.90
22950;DHT22;11641;51.018;4.474;2022-08-01T03:43:02;20.00;99.90
22950;DHT22;11641;51.018;4.474;2022-08-01T03:45:33;20.10;99.90
22950;DHT22;11641;51.018;4.474;2022-08-01T03:48:02;20.20;99.90
22950;DHT22;11641;51.018;4.474;2022-08-01T03:50:31;20.30;99.90
22950;DHT22;11641;51.018;4.474;2022-08-01T03:53:00;20.40;99.90
22950;DHT22;11641;51.018;4.474;2022-08-01T03:55:33;20.40;99.90
22950;DHT22;11641;51.018;4.474;2022-08-01T03:58:00;20.40;99.90
22950;DHT22;11641;51.018;4.474;2022-08-01T04:00:27;20.40;99.90
22950;DHT22;11641;51.018;4.474;2022-08-01T04:02:55;20.40;99.90
22950;DHT22;11641;51.018;4.474;2022-08-01T04:05:22;20.50;99.90
22950;DHT22;11641;51.018;4.474;2022-08-01T04:07:48;20.50;99.90
22950;DHT22;11641;51.018;4.474;2022-08-01T04:10:24;20.40;99.90
22950;DHT22;11641;51.018;4.474;2022-08-01T04:12:50;20.50;99.90
22950;DHT22;11641;51.018;4.474;2022-08-01T04:15:18;20.60;99.90
22950;DHT22;11641;51.018;4.474;2022-08-01T04:17:45;20.60;99.90
22950;DHT22;11641;51.018;4.474;2022-08-01T04:20:14;20.60;99.90
22950;DHT22;11641;51.018;4.474;2022-08-01T04:22:41;20.70;99.90
22950;DHT22;11641;51.018;4.474;2022-08-01T04:25:14;20.70;99.90
22950;DHT22;11641;51.018;4.474;2022-08-01T04:27:45;20.80;99.90
22950;DHT22;11641;51.018;4.474;2022-08-01T04:30:14;20.70;99.90
22950;DHT22;11641;51.018;4.474;2022-08-01T04:32:45;20.70;99.90
22950;DHT22;11641;51.018;4.474;2022-08-01T04:35:13;20.70;99.90
22950;DHT22;11641;51.018;4.474;2022-08-01T04:37:44;20.80;99.90
22950;DHT22;11641;51.018;4.474;2022-08-01T04:40:11;20.80;99.90
22950;DHT22;11641;51.018;4.474;2022-08-01T04:42:37;20.80;99.90
22950;DHT22;11641;51.018;4.474;2022-08-01T04:45:04;20.80;99.90
22950;DHT22;11641;51.018;4.474;2022-08-01T04:47:32;20.60;99.90
22950;DHT22;11641;51.018;4.474;2022-08-01T04:50:06;20.70;99.90
22950;DHT22;11641;51.018;4.474;2022-08-01T04:52:37;20.70;99.90
22950;DHT22;11641;51.018;4.474;2022-08-01T04:55:04;20.80;99.90
22950;DHT22;11641;51.018;4.474;2022-08-01T04:57:36;21.00;99.90
22950;DHT22;11641;51.018;4.474;2022-08-01T05:00:03;21.10;99.90
22950;DHT22;11641;51.018;4.474;2022-08-01T05:02:29;21.30;99.90
22950;DHT22;11641;51.018;4.474;2022-08-01T05:04:57;21.30;99.90
22950;DHT22;11641;51.018;4.474;2022-08-01T05:07:23;21.20;99.90
22950;DHT22;11641;51.018;4.474;2022-08-01T05:09:49;21.20;99.90
22950;DHT22;11641;51.018;4.474;2022-08-01T05:12:21;21.30;99.90
22950;DHT22;11641;51.018;4.474;2022-08-01T05:14:46;21.40;99.90
22950;DHT22;11641;51.018;4.474;2022-08-01T05:17:14;21.40;99.90
22950;DHT22;11641;51.018;4.474;2022-08-01T05:19:44;21.40;99.90
22950;DHT22;11641;51.018;4.474;2022-08-01T05:22:11;21.40;99.90
22950;DHT22;11641;51.018;4.474;2022-08-01T05:24:40;21.50;99.90
22950;DHT22;11641;51.018;4.474;2022-08-01T05:27:06;21.50;99.90
22950;DHT22;11641;51.018;4.474;2022-08-01T05:29:33;21.60;99.90
22950;DHT22;11641;51.018;4.474;2022-08-01T05:32:00;21.80;99.90
22950;DHT22;11641;51.018;4.474;2022-08-01T05:34:28;21.80;99.90
22950;DHT22;11641;51.018;4.474;2022-08-01T05:36:53;21.90;99.90
22950;DHT22;11641;51.018;4.474;2022-08-01T05:39:22;22.00;99.90
22950;DHT22;11641;51.018;4.474;2022-08-01T05:41:48;22.00;99.90
22950;DHT22;11641;51.018;4.474;2022-08-01T05:44:13;22.00;99.90
22950;DHT22;11641;51.018;4.474;2022-08-01T05:46:41;21.60;99.90
22950;DHT22;11641;51.018;4.474;2022-08-01T05:49:09;21.60;99.90
22950;DHT22;11641;51.018;4.474;2022-08-01T05:51:35;21.70;99.90
22950;DHT22;11641;51.018;4.474;2022-08-01T05:54:03;21.90;99.90
22950;DHT22;11641;51.018;4.474;2022-08-01T05:56:29;22.00;99.90
22950;DHT22;11641;51.018;4.474;2022-08-01T05:58:55;21.90;99.90
22950;DHT22;11641;51.018;4.474;2022-08-01T06:01:20;22.00;99.90
22950;DHT22;11641;51.018;4.474;2022-08-01T06:03:47;22.10;99.90
22950;DHT22;11641;51.018;4.474;2022-08-01T06:06:15;22.30;99.90
22950;DHT22;11641;51.018;4.474;2022-08-01T06:08:41;22.30;99.90
22950;DHT22;11641;51.018;4.474;2022-08-01T06:11:08;21.90;99.90
22950;DHT22;11641;51.018;4.474;2022-08-01T06:13:33;22.00;99.90
22950;DHT22;11641;51.018;4.474;2022-08-01T06:16:02;22.00;99.90
22950;DHT22;11641;51.018;4.474;2022-08-01T06:18:28;22.20;99.90
22950;DHT22;11641;51.018;4.474;2022-08-01T06:20:54;22.50;99.90
22950;DHT22;11641;51.018;4.474;2022-08-01T06:23:21;22.30;99.90
22950;DHT22;11641;51.018;4.474;2022-08-01T06:25:52;22.50;99.90
22950;DHT22;11641;51.018;4.474;2022-08-01T06:28:18;22.50;99.90
22950;DHT22;11641;51.018;4.474;2022-08-01T06:30:46;22.70;99.90
22950;DHT22;11641;51.018;4.474;2022-08-01T06:33:15;22.70;99.90
22950;DHT22;11641;51.018;4.474;2022-08-01T06:35:42;22.90;99.90
22950;DHT22;11641;51.018;4.474;2022-08-01T06:38:10;23.00;99.90
22950;DHT22;11641;51.018;4.474;2022-08-01T06:40:38;22.90;99.90
22950;DHT22;11641;51.018;4.474;2022-08-01T06:43:05;23.00;99.90
22950;DHT22;11641;51.018;4.474;2022-08-01T06:45:30;23.20;99.90
22950;DHT22;11641;51.018;4.474;2022-08-01T06:47:56;23.20;99.90
22950;DHT22;11641;51.018;4.474;2022-08-01T06:50:25;23.40;99.90
22950;DHT22;11641;51.018;4.474;2022-08-01T06:52:50;23.70;99.90
22950;DHT22;11641;51.018;4.474;2022-08-01T06:55:19;23.50;99.90
22950;DHT22;11641;51.018;4.474;2022-08-01T06:57:50;23.60;99.90
22950;DHT22;11641;51.018;4.474;2022-08-01T07:00:18;23.90;99.90
22950;DHT22;11641;51.018;4.474;2022-08-01T07:02:50;23.40;99.90
22950;DHT22;11641;51.018;4.474;2022-08-01T07:05:17;23.20;99.90
22950;DHT22;11641;51.018;4.474;2022-08-01T07:07:43;23.20;99.90
22950;DHT22;11641;51.018;4.474;2022-08-01T07:10:16;23.10;99.90
22950;DHT22;11641;51.018;4.474;2022-08-01T07:12:42;23.10;99.90
22950;DHT22;11641;51.018;4.474;2022-08-01T07:15:09;23.40;99.90
22950;DHT22;11641;51.018;4.474;2022-08-01T07:17:39;23.90;99.90
22950;DHT22;11641;51.018;4.474;2022-08-01T07:20:10;23.80;99.90
22950;DHT22;11641;51.018;4.474;2022-08-01T07:22:38;24.20;99.90
22950;DHT22;11641;51.018;4.474;2022-08-01T07:25:06;24.60;99.90
22950;DHT22;11641;51.018;4.474;2022-08-01T07:27:32;24.70;99.90
22950;DHT22;11641;51.018;4.474;2022-08-01T07:29:58;24.80;99.90
22950;DHT22;11641;51.018;4.474;2022-08-01T07:32:25;24.60;99.90
22950;DHT22;11641;51.018;4.474;2022-08-01T07:34:53;24.20;99.90
22950;DHT22;11641;51.018;4.474;2022-08-01T07:37:24;24.20;99.90
22950;DHT22;11641;51.018;4.474;2022-08-01T07:39:50;24.30;99.90
22950;DHT22;11641;51.018;4.474;2022-08-01T07:42:18;24.30;99.90
22950;DHT22;11641;51.018;4.474;2022-08-01T07:44:44;24.40;99.90
22950;DHT22;11641;51.018;4.474;2022-08-01T07:47:10;24.20;99.90
22950;DHT22;11641;51.018;4.474;2022-08-01T07:49:43;24.30;99.90
22950;DHT22;11641;51.018;4.474;2022-08-01T07:52:08;24.40;99.90
22950;DHT22;11641;51.018;4.474;2022-08-01T07:54:36;24.30;99.90
22950;DHT22;11641;51.018;4.474;2022-08-01T07:57:02;23.80;99.90
22950;DHT22;11641;51.018;4.474;2022-08-01T07:59:28;23.70;99.90
22950;DHT22;11641;51.018;4.474;2022-08-01T08:01:57;23.60;99.90
22950;DHT22;11641;51.018;4.474;2022-08-01T08:04:22;23.70;99.90
22950;DHT22;11641;51.018;4.474;2022-08-01T08:06:49;23.60;99.90
22950;DHT22;11641;51.018;4.474;2022-08-01T08:09:18;23.80;99.90
22950;DHT22;11641;51.018;4.474;2022-08-01T08:11:45;23.80;99.90
22950;DHT22;11641;51.018;4.474;2022-08-01T08:14:11;24.20;99.90
22950;DHT22;11641;51.018;4.474;2022-08-01T08:16:38;24.60;99.90
22950;DHT22;11641;51.018;4.474;2022-08-01T08:19:04;25.10;99.90
22950;DHT22;11641;51.018;4.474;2022-08-01T08:21:29;25.70;99.90
22950;DHT22;11641;51.018;4.474;2022-08-01T08:23:56;26.30;99.90
22950;DHT22;11641;51.018;4.474;2022-08-01T08:26:40;26.70;99.90
22950;DHT22;11641;51.018;4.474;2022-08-01T08:29:07;26.40;99.90
22950;DHT22;11641;51.018;4.474;2022-08-01T08:31:33;26.10;99.90
22950;DHT22;11641;51.018;4.474;2022-08-01T08:33:59;25.50;99.90
22950;DHT22;11641;51.018;4.474;2022-08-01T08:36:27;24.80;99.90
22950;DHT22;11641;51.018;4.474;2022-08-01T08:38:53;25.00;99.90
22950;DHT22;11641;51.018;4.474;2022-08-01T08:41:21;24.80;99.90
22950;DHT22;11641;51.018;4.474;2022-08-01T08:43:47;25.40;99.90
22950;DHT22;11641;51.018;4.474;2022-08-01T08:46:15;25.50;99.90
22950;DHT22;11641;51.018;4.474;2022-08-01T08:48:45;25.40;99.90
22950;DHT22;11641;51.018;4.474;2022-08-01T08:51:12;25.00;99.90
22950;DHT22;11641;51.018;4.474;2022-08-01T08:53:42;25.00;99.90
22950;DHT22;11641;51.018;4.474;2022-08-01T08:56:11;24.80;99.90
22950;DHT22;11641;51.018;4.474;2022-08-01T08:58:38;24.90;99.90
22950;DHT22;11641;51.018;4.474;2022-08-01T09:01:07;25.30;99.90
22950;DHT22;11641;51.018;4.474;2022-08-01T09:03:34;25.80;99.90
22950;DHT22;11641;51.018;4.474;2022-08-01T09:06:00;25.50;99.90
22950;DHT22;11641;51.018;4.474;2022-08-01T09:08:28;25.80;99.90
22950;DHT22;11641;51.018;4.474;2022-08-01T09:10:57;26.00;99.90
22950;DHT22;11641;51.018;4.474;2022-08-01T09:13:25;25.70;99.90
22950;DHT22;11641;51.018;4.474;2022-08-01T09:15:55;25.70;99.90
22950;DHT22;11641;51.018;4.474;2022-08-01T09:18:40;26.00;99.90
22950;DHT22;11641;51.018;4.474;2022-08-01T09:23:40;27.10;99.90
22950;DHT22;11641;51.018;4.474;2022-08-01T09:26:11;27.80;99.90
22950;DHT22;11641;51.018;4.474;2022-08-01T09:28:43;28.10;99.90
22950;DHT22;11641;51.018;4.474;2022-08-01T09:31:11;28.50;99.90
22950;DHT22;11641;51.018;4.474;2022-08-01T09:33:56;28.80;99.90
22950;DHT22;11641;51.018;4.474;2022-08-01T09:36:42;29.00;99.90
22950;DHT22;11641;51.018;4.474;2022-08-01T09:39:15;28.90;99.90
22950;DHT22;11641;51.018;4.474;2022-08-01T09:41:42;28.70;99.90
22950;DHT22;11641;51.018;4.474;2022-08-01T09:44:08;28.80;99.90
22950;DHT22;11641;51.018;4.474;2022-08-01T09:46:34;28.60;99.90
22950;DHT22;11641;51.018;4.474;2022-08-01T09:49:04;29.10;99.90
22950;DHT22;11641;51.018;4.474;2022-08-01T09:51:39;29.10;99.90
22950;DHT22;11641;51.018;4.474;2022-08-01T09:54:07;28.90;99.90
22950;DHT22;11641;51.018;4.474;2022-08-01T09:56:39;28.50;99.90
22950;DHT22;11641;51.018;4.474;2022-08-01T09:59:07;28.50;99.90
22950;DHT22;11641;51.018;4.474;2022-08-01T10:01:52;28.60;99.90
22950;DHT22;11641;51.018;4.474;2022-08-01T10:04:21;28.40;99.90
22950;DHT22;11641;51.018;4.474;2022-08-01T10:06:52;28.70;99.90
22950;DHT22;11641;51.018;4.474;2022-08-01T10:09:41;29.20;99.90
22950;DHT22;11641;51.018;4.474;2022-08-01T10:12:09;30.80;99.90
22950;DHT22;11641;51.018;4.474;2022-08-01T10:14:37;31.40;98.90
22950;DHT22;11641;51.018;4.474;2022-08-01T10:17:04;32.90;95.70
22950;DHT22;11641;51.018;4.474;2022-08-01T10:19:32;33.80;91.50
22950;DHT22;11641;51.018;4.474;2022-08-01T10:22:01;34.30;87.90
22950;DHT22;11641;51.018;4.474;2022-08-01T10:24:30;35.30;85.20
22950;DHT22;11641;51.018;4.474;2022-08-01T10:27:08;36.10;79.90
22950;DHT22;11641;51.018;4.474;2022-08-01T10:29:36;36.10;78.00
22950;DHT22;11641;51.018;4.474;2022-08-01T10:32:06;35.90;78.60
22950;DHT22;11641;51.018;4.474;2022-08-01T10:34:35;36.50;76.80
22950;DHT22;11641;51.018;4.474;2022-08-01T10:37:03;36.40;77.30
22950;DHT22;11641;51.018;4.474;2022-08-01T10:39:31;35.30;77.30
22950;DHT22;11641;51.018;4.474;2022-08-01T10:41:56;35.60;76.80
22950;DHT22;11641;51.018;4.474;2022-08-01T10:44:24;36.00;73.40
22950;DHT22;11641;51.018;4.474;2022-08-01T10:46:59;37.30;72.20
22950;DHT22;11641;51.018;4.474;2022-08-01T10:49:29;37.50;69.00
22950;DHT22;11641;51.018;4.474;2022-08-01T10:51:57;38.50;65.10
22950;DHT22;11641;51.018;4.474;2022-08-01T10:54:27;39.70;62.70
22950;DHT22;11641;51.018;4.474;2022-08-01T10:56:53;37.90;64.50
22950;DHT22;11641;51.018;4.474;2022-08-01T10:59:27;37.80;64.40
22950;DHT22;11641;51.018;4.474;2022-08-01T11:02:03;37.30;63.70
22950;DHT22;11641;51.018;4.474;2022-08-01T11:07:47;38.20;61.60
22950;DHT22;11641;51.018;4.474;2022-08-01T11:12:54;38.80;59.20
22950;DHT22;11641;51.018;4.474;2022-08-01T11:15:27;38.40;60.50
22950;DHT22;11641;51.018;4.474;2022-08-01T11:17:56;38.40;59.70
22950;DHT22;11641;51.018;4.474;2022-08-01T11:20:25;38.50;59.20
22950;DHT22;11641;51.018;4.474;2022-08-01T11:28:23;35.60;63.50
22950;DHT22;11641;51.018;4.474;2022-08-01T11:31:25;34.90;66.00
22950;DHT22;11641;51.018;4.474;2022-08-01T11:38:39;35.50;66.00
22950;DHT22;11641;51.018;4.474;2022-08-01T11:41:17;35.30;65.10
22950;DHT22;11641;51.018;4.474;2022-08-01T11:44:09;35.40;64.40
22950;DHT22;11641;51.018;4.474;2022-08-01T11:46:54;36.00;63.20
22950;DHT22;11641;51.018;4.474;2022-08-01T11:51:59;37.70;59.30
22950;DHT22;11641;51.018;4.474;2022-08-01T11:54:30;38.40;58.70
22950;DHT22;11641;51.018;4.474;2022-08-01T11:57:02;39.40;57.10
22950;DHT22;11641;51.018;4.474;2022-08-01T11:59:28;39.70;56.90
22950;DHT22;11641;51.018;4.474;2022-08-01T12:01:54;40.00;56.20
22950;DHT22;11641;51.018;4.474;2022-08-01T12:04:20;41.90;54.00
22950;DHT22;11641;51.018;4.474;2022-08-01T12:06:46;43.50;50.70
22950;DHT22;11641;51.018;4.474;2022-08-01T12:09:22;40.80;49.30
22950;DHT22;11641;51.018;4.474;2022-08-01T12:11:52;40.70;49.80
22950;DHT22;11641;51.018;4.474;2022-08-01T12:14:21;39.00;51.50
22950;DHT22;11641;51.018;4.474;2022-08-01T12:16:52;38.10;53.90
22950;DHT22;11641;51.018;4.474;2022-08-01T12:19:23;37.80;54.70
22950;DHT22;11641;51.018;4.474;2022-08-01T12:22:12;38.00;53.70
22950;DHT22;11641;51.018;4.474;2022-08-01T12:24:40;38.90;52.60
22950;DHT22;11641;51.018;4.474;2022-08-01T12:27:07;39.20;52.40
22950;DHT22;11641;51.018;4.474;2022-08-01T12:29:38;39.50;51.90
22950;DHT22;11641;51.018;4.474;2022-08-01T12:32:30;38.90;53.30
22950;DHT22;11641;51.018;4.474;2022-08-01T12:35:09;37.80;54.70
22950;DHT22;11641;51.018;4.474;2022-08-01T12:37:43;37.90;55.00
22950;DHT22;11641;51.018;4.474;2022-08-01T12:40:18;38.00;55.00
22950;DHT22;11641;51.018;4.474;2022-08-01T12:42:53;39.40;53.60
22950;DHT22;11641;51.018;4.474;2022-08-01T12:45:31;39.00;53.90
22950;DHT22;11641;51.018;4.474;2022-08-01T12:48:08;39.80;53.10
22950;DHT22;11641;51.018;4.474;2022-08-01T12:50:34;39.70;53.10
22950;DHT22;11641;51.018;4.474;2022-08-01T12:53:02;40.70;49.90
22950;DHT22;11641;51.018;4.474;2022-08-01T12:55:28;41.70;48.40
22950;DHT22;11641;51.018;4.474;2022-08-01T12:58:11;42.50;47.80
22950;DHT22;11641;51.018;4.474;2022-08-01T13:00:43;43.90;44.80
22950;DHT22;11641;51.018;4.474;2022-08-01T13:03:19;43.80;45.40
22950;DHT22;11641;51.018;4.474;2022-08-01T13:05:57;45.10;43.50
22950;DHT22;11641;51.018;4.474;2022-08-01T13:08:33;43.70;42.10
22950;DHT22;11641;51.018;4.474;2022-08-01T13:11:11;44.20;42.90
22950;DHT22;11641;51.018;4.474;2022-08-01T13:14:00;44.10;42.10
22950;DHT22;11641;51.018;4.474;2022-08-01T13:16:26;45.40;40.80
22950;DHT22;11641;51.018;4.474;2022-08-01T13:18:58;47.00;39.20
22950;DHT22;11641;51.018;4.474;2022-08-01T13:21:28;46.90;39.10
22950;DHT22;11641;51.018;4.474;2022-08-01T13:29:17;46.90;38.40
22950;DHT22;11641;51.018;4.474;2022-08-01T13:31:45;45.00;40.10
22950;DHT22;11641;51.018;4.474;2022-08-01T13:34:15;45.20;40.40
22950;DHT22;11641;51.018;4.474;2022-08-01T13:36:41;44.50;39.90
22950;DHT22;11641;51.018;4.474;2022-08-01T13:39:08;45.60;39.20
22950;DHT22;11641;51.018;4.474;2022-08-01T13:41:53;46.80;38.30
22950;DHT22;11641;51.018;4.474;2022-08-01T13:44:19;46.80;36.20
22950;DHT22;11641;51.018;4.474;2022-08-01T13:46:45;46.80;36.40
22950;DHT22;11641;51.018;4.474;2022-08-01T13:49:13;47.60;35.60
22950;DHT22;11641;51.018;4.474;2022-08-01T13:51:39;46.90;35.70
22950;DHT22;11641;51.018;4.474;2022-08-01T13:54:07;47.70;34.20
22950;DHT22;11641;51.018;4.474;2022-08-01T13:56:33;44.50;36.60
22950;DHT22;11641;51.018;4.474;2022-08-01T13:58:59;42.40;39.30
22950;DHT22;11641;51.018;4.474;2022-08-01T14:01:25;41.20;39.50
22950;DHT22;11641;51.018;4.474;2022-08-01T14:03:52;40.90;40.70
22950;DHT22;11641;51.018;4.474;2022-08-01T14:06:21;41.00;40.40
22950;DHT22;11641;51.018;4.474;2022-08-01T14:08:48;42.20;40.10
22950;DHT22;11641;51.018;4.474;2022-08-01T14:11:18;42.00;39.60
22950;DHT22;11641;51.018;4.474;2022-08-01T14:13:44;44.40;38.30
22950;DHT22;11641;51.018;4.474;2022-08-01T14:16:11;43.50;37.70
22950;DHT22;11641;51.018;4.474;2022-08-01T14:18:37;42.40;39.50
22950;DHT22;11641;51.018;4.474;2022-08-01T14:21:05;43.00;39.40
22950;DHT22;11641;51.018;4.474;2022-08-01T14:23:34;42.80;40.60
22950;DHT22;11641;51.018;4.474;2022-08-01T14:25:59;43.10;39.80
22950;DHT22;11641;51.018;4.474;2022-08-01T14:28:26;44.00;39.30
22950;DHT22;11641;51.018;4.474;2022-08-01T14:30:54;44.90;38.00
22950;DHT22;11641;51.018;4.474;2022-08-01T14:33:23;45.50;36.70
22950;DHT22;11641;51.018;4.474;2022-08-01T14:35:49;45.00;36.50
22950;DHT22;11641;51.018;4.474;2022-08-01T14:38:15;44.50;37.60
22950;DHT22;11641;51.018;4.474;2022-08-01T14:40:41;42.90;38.10
22950;DHT22;11641;51.018;4.474;2022-08-01T14:43:07;42.80;38.30
22950;DHT22;11641;51.018;4.474;2022-08-01T14:45:35;43.30;38.00
22950;DHT22;11641;51.018;4.474;2022-08-01T14:48:05;43.30;36.80
22950;DHT22;11641;51.018;4.474;2022-08-01T14:50:32;43.30;38.30
22950;DHT22;11641;51.018;4.474;2022-08-01T14:52:58;44.50;36.70
22950;DHT22;11641;51.018;4.474;2022-08-01T14:55:24;44.50;36.50
22950;DHT22;11641;51.018;4.474;2022-08-01T14:57:52;45.20;36.60
22950;DHT22;11641;51.018;4.474;2022-08-01T15:00:19;46.00;36.30
22950;DHT22;11641;51.018;4.474;2022-08-01T15:02:45;45.70;36.40
22950;DHT22;11641;51.018;4.474;2022-08-01T15:05:14;47.10;35.20
22950;DHT22;11641;51.018;4.474;2022-08-01T15:07:40;48.40;34.00
22950;DHT22;11641;51.018;4.474;2022-08-01T15:10:06;47.90;33.00
22950;DHT22;11641;51.018;4.474;2022-08-01T15:12:32;47.40;34.10
22950;DHT22;11641;51.018;4.474;2022-08-01T15:14:59;48.20;33.40
22950;DHT22;11641;51.018;4.474;2022-08-01T15:17:27;45.80;34.70
22950;DHT22;11641;51.018;4.474;2022-08-01T15:20:02;45.10;36.20
22950;DHT22;11641;51.018;4.474;2022-08-01T15:22:28;44.40;36.40
22950;DHT22;11641;51.018;4.474;2022-08-01T15:24:56;44.70;36.60
22950;DHT22;11641;51.018;4.474;2022-08-01T15:27:23;44.30;36.00
22950;DHT22;11641;51.018;4.474;2022-08-01T15:29:50;44.40;34.60
22950;DHT22;11641;51.018;4.474;2022-08-01T15:32:16;44.30;34.70
22950;DHT22;11641;51.018;4.474;2022-08-01T15:34:42;43.40;36.70
22950;DHT22;11641;51.018;4.474;2022-08-01T15:37:09;43.60;35.90
22950;DHT22;11641;51.018;4.474;2022-08-01T15:39:38;43.60;36.20
22950;DHT22;11641;51.018;4.474;2022-08-01T15:42:08;43.80;35.50
22950;DHT22;11641;51.018;4.474;2022-08-01T15:44:34;44.40;35.70
22950;DHT22;11641;51.018;4.474;2022-08-01T15:47:01;43.10;36.00
22950;DHT22;11641;51.018;4.474;2022-08-01T15:49:27;43.70;36.20
22950;DHT22;11641;51.018;4.474;2022-08-01T15:51:58;44.40;35.80
22950;DHT22;11641;51.018;4.474;2022-08-01T15:54:25;45.80;34.20
22950;DHT22;11641;51.018;4.474;2022-08-01T15:56:52;46.10;32.40
22950;DHT22;11641;51.018;4.474;2022-08-01T15:59:21;45.50;33.80
22950;DHT22;11641;51.018;4.474;2022-08-01T16:01:47;44.50;33.80
22950;DHT22;11641;51.018;4.474;2022-08-01T16:04:18;45.80;33.60
22950;DHT22;11641;51.018;4.474;2022-08-01T16:06:50;46.50;33.10
22950;DHT22;11641;51.018;4.474;2022-08-01T16:09:16;47.00;33.10
22950;DHT22;11641;51.018;4.474;2022-08-01T16:11:43;45.50;32.70
22950;DHT22;11641;51.018;4.474;2022-08-01T16:14:09;44.50;34.70
22950;DHT22;11641;51.018;4.474;2022-08-01T16:16:35;43.30;34.70
22950;DHT22;11641;51.018;4.474;2022-08-01T16:19:03;43.30;35.80
22950;DHT22;11641;51.018;4.474;2022-08-01T16:21:30;43.50;35.80